sensor_id;sensor_type;location;lat;lon;timestamp;pressure;altitude;pressure_sealevel;temperature;humidity
4273;BME280;63887;53.656;9.810;2023-04-07T00:01:12;101754.28;;;6.20;52.60
4273;BME280;63887;53.656;9.810;2023-04-07T00:03:38;101755.72;;;6.35;52.35
4273;BME280;63887;53.656;9.810;2023-04-07T00:06:06;101752.47;;;6.24;52.69
4273;BME280;63887;53.656;9.810;2023-04-07T00:08:32;101754.84;;;6.35;52.32
4273;BME280;63887;53.656;9.810;2023-04-07T00:11:00;101754.41;;;6.56;51.18
4273;BME280;63887;53.656;9.810;2023-04-07T00:13:27;101753.13;;;6.34;52.18
4273;BME280;63887;53.656;9.810;2023-04-07T00:15:53;101751.13;;;6.05;53.22
4273;BME280;63887;53.656;9.810;2023-04-07T00:18:19;101758.38;;;6.32;53.29
4273;BME280;63887;53.656;9.810;2023-04-07T00:20:46;101747.09;;;6.32;52.98
4273;BME280;63887;53.656;9.810;2023-04-07T00:23:12;101750.66;;;6.29;53.06
4273;BME280;63887;53.656;9.810;2023-04-07T00:25:39;101749.53;;;6.41;52.97
4273;BME280;63887;53.656;9.810;2023-04-07T00:28:06;101754.50;;;6.10;52.84
4273;BME280;63887;53.656;9.810;2023-04-07T00:30:33;101754.41;;;6.14;53.57
4273;BME280;63887;53.656;9.810;2023-04-07T00:32:59;101747.59;;;6.07;53.33
4273;BME280;63887;53.656;9.810;2023-04-07T00:35:26;101749.38;;;6.05;53.96
4273;BME280;63887;53.656;9.810;2023-04-07T00:37:52;101753.25;;;6.29;53.12
4273;BME280;63887;53.656;9.810;2023-04-07T00:40:19;101762.88;;;6.25;53.11
4273;BME280;63887;53.656;9.810;2023-04-07T00:42:45;101762.97;;;6.21;52.89
4273;BME280;63887;53.656;9.810;2023-04-07T00:45:13;101761.66;;;6.00;54.58
4273;BME280;63887;53.656;9.810;2023-04-07T00:47:40;101753.78;;;6.03;54.00
4273;BME280;63887;53.656;9.810;2023-04-07T00:50:07;101751.56;;;5.80;55.04
4273;BME280;63887;53.656;9.810;2023-04-07T00:52:34;101752.16;;;5.97;53.83
4273;BME280;63887;53.656;9.810;2023-04-07T00:55:01;101752.84;;;6.06;53.73
4273;BME280;63887;53.656;9.810;2023-04-07T00:57:28;101743.91;;;6.19;53.25
4273;BME280;63887;53.656;9.810;2023-04-07T00:59:54;101750.66;;;5.84;53.43
4273;BME280;63887;53.656;9.810;2023-04-07T01:02:28;101750.09;;;5.68;54.80
4273;BME280;63887;53.656;9.810;2023-04-07T01:05:03;101754.16;;;5.80;55.01
4273;BME280;63887;53.656;9.810;2023-04-07T01:07:35;101753.31;;;5.81;53.86
4273;BME280;63887;53.656;9.810;2023-04-07T01:10:07;101749.63;;;5.93;54.32
4273;BME280;63887;53.656;9.810;2023-04-07T01:12:40;101749.63;;;5.93;53.50
4273;BME280;63887;53.656;9.810;2023-04-07T01:15:09;101751.50;;;5.85;54.44
4273;BME280;63887;53.656;9.810;2023-04-07T01:17:41;101747.75;;;6.01;53.02
4273;BME280;63887;53.656;9.810;2023-04-07T01:20:11;101742.63;;;5.96;53.77
4273;BME280;63887;53.656;9.810;2023-04-07T01:22:42;101750.69;;;5.83;53.64
4273;BME280;63887;53.656;9.810;2023-04-07T01:25:31;101750.66;;;5.84;54.52
4273;BME280;63887;53.656;9.810;2023-04-07T01:28:13;101748.22;;;5.75;54.66
4273;BME280;63887;53.656;9.810;2023-04-07T01:30:43;101744.84;;;5.70;54.05
4273;BME280;63887;53.656;9.810;2023-04-07T01:33:11;101758.53;;;5.81;54.27
4273;BME280;63887;53.656;9.810;2023-04-07T01:35:40;101756.41;;;5.55;54.75
4273;BME280;63887;53.656;9.810;2023-04-07T01:38:08;101752.81;;;5.61;54.41
4273;BME280;63887;53.656;9.810;2023-04-07T01:40:36;101752.63;;;5.72;54.58
4273;BME280;63887;53.656;9.810;2023-04-07T01:43:05;101754.63;;;5.57;54.97
4273;BME280;63887;53.656;9.810;2023-04-07T01:45:33;101753.50;;;5.71;53.88
4273;BME280;63887;53.656;9.810;2023-04-07T01:48:04;101756.31;;;5.58;54.57
4273;BME280;63887;53.656;9.810;2023-04-07T01:50:32;101754.78;;;5.47;55.23
4273;BME280;63887;53.656;9.810;2023-04-07T01:52:59;101756.84;;;5.77;54.03
4273;BME280;63887;53.656;9.810;2023-04-07T01:55:26;101768.75;;;5.43;55.17
4273;BME280;63887;53.656;9.810;2023-04-07T01:57:53;101760.13;;;5.41;55.33
4273;BME280;63887;53.656;9.810;2023-04-07T02:00:20;101758.28;;;5.46;55.01
4273;BME280;63887;53.656;9.810;2023-04-07T02:02:48;101756.97;;;5.20;56.11
4273;BME280;63887;53.656;9.810;2023-04-07T02:05:19;101760.09;;;5.42;55.46
4273;BME280;63887;53.656;9.810;2023-04-07T02:07:50;101766.44;;;5.26;55.43
4273;BME280;63887;53.656;9.810;2023-04-07T02:10:21;101760.31;;;5.28;55.35
4273;BME280;63887;53.656;9.810;2023-04-07T02:12:48;101763.91;;;5.23;55.84
4273;BME280;63887;53.656;9.810;2023-04-07T02:15:15;101771.16;;;5.01;56.94
4273;BME280;63887;53.656;9.810;2023-04-07T02:17:47;101762.31;;;5.13;56.23
4273;BME280;63887;53.656;9.810;2023-04-07T02:20:15;101761.53;;;5.07;56.43
4273;BME280;63887;53.656;9.810;2023-04-07T02:22:44;101760.06;;;4.90;57.23
4273;BME280;63887;53.656;9.810;2023-04-07T02:25:22;101761.13;;;5.32;55.14
4273;BME280;63887;53.656;9.810;2023-04-07T02:27:49;101768.50;;;5.04;56.59
4273;BME280;63887;53.656;9.810;2023-04-07T02:30:16;101765.03;;;5.06;56.04
4273;BME280;63887;53.656;9.810;2023-04-07T02:32:42;101766.13;;;4.92;56.64
4273;BME280;63887;53.656;9.810;2023-04-07T02:35:09;101767.63;;;5.05;56.54
4273;BME280;63887;53.656;9.810;2023-04-07T02:37:35;101774.47;;;5.12;55.78
4273;BME280;63887;53.656;9.810;2023-04-07T02:40:04;101773.91;;;4.90;57.25
4273;BME280;63887;53.656;9.810;2023-04-07T02:42:31;101778.09;;;5.00;56.70
4273;BME280;63887;53.656;9.810;2023-04-07T02:44:57;101776.69;;;4.79;56.81
4273;BME280;63887;53.656;9.810;2023-04-07T02:47:24;101776.53;;;4.90;56.48
4273;BME280;63887;53.656;9.810;2023-04-07T02:49:50;101782.28;;;5.11;56.18
4273;BME280;63887;53.656;9.810;2023-04-07T02:52:17;101784.19;;;4.99;55.98
4273;BME280;63887;53.656;9.810;2023-04-07T02:54:43;101781.81;;;4.84;56.51
4273;BME280;63887;53.656;9.810;2023-04-07T02:57:11;101778.31;;;4.87;56.49
4273;BME280;63887;53.656;9.810;2023-04-07T02:59:38;101771.25;;;4.96;56.10
4273;BME280;63887;53.656;9.810;2023-04-07T03:02:05;101777.34;;;4.95;55.79
4273;BME280;63887;53.656;9.810;2023-04-07T03:04:31;101782.41;;;5.03;55.57
4273;BME280;63887;53.656;9.810;2023-04-07T03:06:58;101789.50;;;4.90;55.95
4273;BME280;63887;53.656;9.810;2023-04-07T03:09:24;101771.34;;;4.89;56.20
4273;BME280;63887;53.656;9.810;2023-04-07T03:11:51;101785.06;;;4.98;55.77
4273;BME280;63887;53.656;9.810;2023-04-07T03:14:19;101775.28;;;4.56;57.09
4273;BME280;63887;53.656;9.810;2023-04-07T03:16:45;101788.97;;;4.68;57.08
4273;BME280;63887;53.656;9.810;2023-04-07T03:19:12;101791.03;;;4.43;57.82
4273;BME280;63887;53.656;9.810;2023-04-07T03:21:38;101792.56;;;4.60;57.51
4273;BME280;63887;53.656;9.810;2023-04-07T03:24:06;101790.66;;;4.71;57.26
4273;BME280;63887;53.656;9.810;2023-04-07T03:26:32;101789.06;;;4.61;57.37
4273;BME280;63887;53.656;9.810;2023-04-07T03:28:59;101791.03;;;4.43;57.64
4273;BME280;63887;53.656;9.810;2023-04-07T03:31:26;101782.97;;;4.65;57.42
4273;BME280;63887;53.656;9.810;2023-04-07T03:33:54;101793.66;;;4.42;58.12
4273;BME280;63887;53.656;9.810;2023-04-07T03:36:21;101790.22;;;4.40;58.08
4273;BME280;63887;53.656;9.810;2023-04-07T03:38:48;101793.63;;;4.46;57.36
4273;BME280;63887;53.656;9.810;2023-04-07T03:41:15;101789.06;;;4.62;57.15
4273;BME280;63887;53.656;9.810;2023-04-07T03:43:41;101786.59;;;4.53;57.27
4273;BME280;63887;53.656;9.810;2023-04-07T03:46:08;101785.81;;;4.45;57.83
4273;BME280;63887;53.656;9.810;2023-04-07T03:48:35;101791.69;;;4.62;57.18
4273;BME280;63887;53.656;9.810;2023-04-07T03:51:02;101798.97;;;4.31;57.86
4273;BME280;63887;53.656;9.810;2023-04-07T03:53:29;101804.88;;;4.47;57.15
4273;BME280;63887;53.656;9.810;2023-04-07T03:55:55;101808.53;;;4.29;58.53
4273;BME280;63887;53.656;9.810;2023-04-07T03:58:21;101809.25;;;4.42;58.27
4273;BME280;63887;53.656;9.810;2023-04-07T04:00:48;101807.63;;;4.33;58.32
4273;BME280;63887;53.656;9.810;2023-04-07T04:03:14;101807.63;;;4.33;57.41
4273;BME280;63887;53.656;9.810;2023-04-07T04:05:42;101812.91;;;4.26;58.34
4273;BME280;63887;53.656;9.810;2023-04-07T04:08:09;101814.53;;;4.34;57.46
4273;BME280;63887;53.656;9.810;2023-04-07T04:10:35;101812.06;;;4.24;58.20
4273;BME280;63887;53.656;9.810;2023-04-07T04:13:01;101819.09;;;4.17;58.38
4273;BME280;63887;53.656;9.810;2023-04-07T04:15:30;101819.78;;;4.28;58.13
4273;BME280;63887;53.656;9.810;2023-04-07T04:17:57;101822.53;;;4.19;58.09
4273;BME280;63887;53.656;9.810;2023-04-07T04:20:23;101825.91;;;4.24;57.81
4273;BME280;63887;53.656;9.810;2023-04-07T04:22:51;101831.16;;;4.19;58.04
4273;BME280;63887;53.656;9.810;2023-04-07T04:25:19;101833.00;;;4.10;58.43
4273;BME280;63887;53.656;9.810;2023-04-07T04:27:45;101835.78;;;3.93;58.72
4273;BME280;63887;53.656;9.810;2023-04-07T04:30:12;101841.03;;;3.85;59.12
4273;BME280;63887;53.656;9.810;2023-04-07T04:32:38;101830.53;;;3.98;58.68
4273;BME280;63887;53.656;9.810;2023-04-07T04:35:05;101843.31;;;4.16;57.70
4273;BME280;63887;53.656;9.810;2023-04-07T04:37:32;101841.16;;;3.70;60.88
4273;BME280;63887;53.656;9.810;2023-04-07T04:40:00;101841.09;;;3.78;60.11
4273;BME280;63887;53.656;9.810;2023-04-07T04:42:26;101848.72;;;3.96;58.79
4273;BME280;63887;53.656;9.810;2023-04-07T04:44:53;101854.19;;;3.64;60.44
4273;BME280;63887;53.656;9.810;2023-04-07T04:47:19;101857.25;;;4.09;58.57
4273;BME280;63887;53.656;9.810;2023-04-07T04:49:46;101861.00;;;3.77;59.73
4273;BME280;63887;53.656;9.810;2023-04-07T04:52:12;101861.63;;;4.04;58.86
4273;BME280;63887;53.656;9.810;2023-04-07T04:54:39;101864.41;;;3.82;59.55
4273;BME280;63887;53.656;9.810;2023-04-07T04:57:07;101867.09;;;3.75;59.38
4273;BME280;63887;53.656;9.810;2023-04-07T04:59:33;101868.81;;;3.74;59.53
4273;BME280;63887;53.656;9.810;2023-04-07T05:01:59;101866.19;;;3.79;60.03
4273;BME280;63887;53.656;9.810;2023-04-07T05:04:26;101870.28;;;4.00;58.77
4273;BME280;63887;53.656;9.810;2023-04-07T05:06:53;101871.41;;;3.71;59.67
4273;BME280;63887;53.656;9.810;2023-04-07T05:09:19;101877.25;;;3.98;58.83
4273;BME280;63887;53.656;9.810;2023-04-07T05:11:45;101879.66;;;4.19;57.85
4273;BME280;63887;53.656;9.810;2023-04-07T05:14:13;101883.09;;;4.21;57.67
4273;BME280;63887;53.656;9.810;2023-04-07T05:16:40;101887.72;;;3.85;59.43
4273;BME280;63887;53.656;9.810;2023-04-07T05:19:06;101888.63;;;3.83;59.48
4273;BME280;63887;53.656;9.810;2023-04-07T05:21:33;101889.44;;;3.91;58.82
4273;BME280;63887;53.656;9.810;2023-04-07T05:23:59;101892.94;;;3.84;59.38
4273;BME280;63887;53.656;9.810;2023-04-07T05:26:26;101896.31;;;3.94;58.65
4273;BME280;63887;53.656;9.810;2023-04-07T05:28:52;101897.59;;;4.39;57.31
4273;BME280;63887;53.656;9.810;2023-04-07T05:31:20;101904.03;;;4.04;59.08
4273;BME280;63887;53.656;9.810;2023-04-07T05:33:46;101904.50;;;4.40;57.06
4273;BME280;63887;53.656;9.810;2023-04-07T05:36:13;101902.72;;;4.46;56.88
4273;BME280;63887;53.656;9.810;2023-04-07T05:38:39;101907.81;;;4.56;55.91
4273;BME280;63887;53.656;9.810;2023-04-07T05:41:06;101911.41;;;4.42;56.52
4273;BME280;63887;53.656;9.810;2023-04-07T05:43:32;101918.31;;;4.46;56.87
4273;BME280;63887;53.656;9.810;2023-04-07T05:45:59;101924.38;;;4.47;56.67
4273;BME280;63887;53.656;9.810;2023-04-07T05:48:26;101922.44;;;4.64;55.87
4273;BME280;63887;53.656;9.810;2023-04-07T05:50:53;101918.84;;;4.74;56.11
4273;BME280;63887;53.656;9.810;2023-04-07T05:53:19;101919.19;;;4.42;57.66
4273;BME280;63887;53.656;9.810;2023-04-07T05:55:46;101927.53;;;4.72;56.19
4273;BME280;63887;53.656;9.810;2023-04-07T05:58:12;101928.38;;;4.74;55.55
4273;BME280;63887;53.656;9.810;2023-04-07T06:00:40;101923.88;;;4.88;55.26
4273;BME280;63887;53.656;9.810;2023-04-07T06:03:06;101933.59;;;4.71;55.81
4273;BME280;63887;53.656;9.810;2023-04-07T06:05:34;101934.13;;;4.99;55.47
4273;BME280;63887;53.656;9.810;2023-04-07T06:08:00;101933.38;;;4.92;55.38
4273;BME280;63887;53.656;9.810;2023-04-07T06:10:27;101938.38;;;5.07;54.76
4273;BME280;63887;53.656;9.810;2023-04-07T06:12:53;101933.75;;;5.28;54.52
4273;BME280;63887;53.656;9.810;2023-04-07T06:15:20;101939.44;;;6.11;51.75
4273;BME280;63887;53.656;9.810;2023-04-07T06:17:46;101936.22;;;6.88;48.54
4273;BME280;63887;53.656;9.810;2023-04-07T06:20:13;101943.22;;;7.26;47.83
4273;BME280;63887;53.656;9.810;2023-04-07T06:22:40;101940.50;;;7.32;47.92
4273;BME280;63887;53.656;9.810;2023-04-07T06:25:08;101943.50;;;7.53;49.05
4273;BME280;63887;53.656;9.810;2023-04-07T06:27:34;101949.28;;;8.69;44.33
4273;BME280;63887;53.656;9.810;2023-04-07T06:30:01;101947.59;;;9.55;41.91
4273;BME280;63887;53.656;9.810;2023-04-07T06:32:27;101946.72;;;9.82;40.53
4273;BME280;63887;53.656;9.810;2023-04-07T06:34:54;101947.97;;;10.97;38.40
4273;BME280;63887;53.656;9.810;2023-04-07T06:37:20;101961.56;;;11.97;36.92
4273;BME280;63887;53.656;9.810;2023-04-07T06:39:50;101957.97;;;12.81;34.15
4273;BME280;63887;53.656;9.810;2023-04-07T06:42:16;101957.44;;;12.12;35.61
4273;BME280;63887;53.656;9.810;2023-04-07T06:44:43;101945.66;;;13.38;33.53
4273;BME280;63887;53.656;9.810;2023-04-07T06:47:09;101958.56;;;12.47;35.66
4273;BME280;63887;53.656;9.810;2023-04-07T06:49:36;101964.47;;;13.49;32.67
4273;BME280;63887;53.656;9.810;2023-04-07T06:52:03;101969.09;;;12.67;33.91
4273;BME280;63887;53.656;9.810;2023-04-07T06:54:30;101965.25;;;12.74;33.33
4273;BME280;63887;53.656;9.810;2023-04-07T06:56:57;101965.00;;;12.80;34.17
4273;BME280;63887;53.656;9.810;2023-04-07T06:59:24;101965.28;;;12.34;34.05
4273;BME280;63887;53.656;9.810;2023-04-07T07:01:50;101968.03;;;11.67;35.20
4273;BME280;63887;53.656;9.810;2023-04-07T07:04:17;101966.66;;;11.80;35.74
4273;BME280;63887;53.656;9.810;2023-04-07T07:06:43;101964.50;;;11.89;36.05
4273;BME280;63887;53.656;9.810;2023-04-07T07:09:09;101972.00;;;11.33;36.83
4273;BME280;63887;53.656;9.810;2023-04-07T07:11:36;101968.59;;;11.29;37.45
4273;BME280;63887;53.656;9.810;2023-04-07T07:14:04;101977.75;;;10.72;38.50
4273;BME280;63887;53.656;9.810;2023-04-07T07:16:30;101973.84;;;9.80;40.32
4273;BME280;63887;53.656;9.810;2023-04-07T07:18:56;101977.81;;;9.65;40.90
4273;BME280;63887;53.656;9.810;2023-04-07T07:21:23;101987.78;;;9.54;41.85
4273;BME280;63887;53.656;9.810;2023-04-07T07:23:50;101978.47;;;9.16;42.29
4273;BME280;63887;53.656;9.810;2023-04-07T07:26:17;101976.91;;;8.79;42.69
4273;BME280;63887;53.656;9.810;2023-04-07T07:28:43;101989.00;;;8.83;43.08
4273;BME280;63887;53.656;9.810;2023-04-07T07:31:12;101988.72;;;8.92;44.56
4273;BME280;63887;53.656;9.810;2023-04-07T07:33:40;101991.31;;;8.92;42.20
4273;BME280;63887;53.656;9.810;2023-04-07T07:36:08;101990.63;;;8.87;43.32
4273;BME280;63887;53.656;9.810;2023-04-07T07:38:34;101989.00;;;8.83;43.50
4273;BME280;63887;53.656;9.810;2023-04-07T07:41:03;101999.63;;;9.08;44.44
4273;BME280;63887;53.656;9.810;2023-04-07T07:43:29;101990.91;;;9.37;41.21
4273;BME280;63887;53.656;9.810;2023-04-07T07:45:55;101995.28;;;9.37;40.66
4273;BME280;63887;53.656;9.810;2023-04-07T07:48:23;101999.44;;;9.44;42.03
4273;BME280;63887;53.656;9.810;2023-04-07T07:50:50;101999.84;;;9.30;40.33
4273;BME280;63887;53.656;9.810;2023-04-07T07:53:17;102009.38;;;9.33;40.25
4273;BME280;63887;53.656;9.810;2023-04-07T07:55:44;102003.38;;;9.29;40.00
4273;BME280;63887;53.656;9.810;2023-04-07T07:58:10;102004.94;;;9.35;40.28
4273;BME280;63887;53.656;9.810;2023-04-07T08:00:37;102007.66;;;9.61;42.28
4273;BME280;63887;53.656;9.810;2023-04-07T08:03:03;102013.94;;;9.55;41.03
4273;BME280;63887;53.656;9.810;2023-04-07T08:05:31;102008.81;;;9.79;40.74
4273;BME280;63887;53.656;9.810;2023-04-07T08:07:58;102008.88;;;9.77;39.60
4273;BME280;63887;53.656;9.810;2023-04-07T08:10:24;102004.16;;;9.89;39.16
4273;BME280;63887;53.656;9.810;2023-04-07T08:12:50;102012.63;;;9.70;38.81
4273;BME280;63887;53.656;9.810;2023-04-07T08:15:17;102017.66;;;9.76;39.10
4273;BME280;63887;53.656;9.810;2023-04-07T08:17:43;102012.63;;;9.70;41.34
4273;BME280;63887;53.656;9.810;2023-04-07T08:20:10;102012.78;;;9.92;39.46
4273;BME280;63887;53.656;9.810;2023-04-07T08:22:38;102020.56;;;9.67;39.92
4273;BME280;63887;53.656;9.810;2023-04-07T08:25:05;102020.25;;;9.76;40.30
4273;BME280;63887;53.656;9.810;2023-04-07T08:27:32;102021.59;;;9.90;40.04
4273;BME280;63887;53.656;9.810;2023-04-07T08:29:59;102010.25;;;9.89;41.21
4273;BME280;63887;53.656;9.810;2023-04-07T08:32:33;102020.03;;;10.10;40.26
4273;BME280;63887;53.656;9.810;2023-04-07T08:34:59;102021.06;;;10.06;39.59
4273;BME280;63887;53.656;9.810;2023-04-07T08:37:26;102030.53;;;9.84;38.75
4273;BME280;63887;53.656;9.810;2023-04-07T08:39:54;102020.38;;;9.73;39.82
4273;BME280;63887;53.656;9.810;2023-04-07T08:42:22;102029.13;;;9.72;39.30
4273;BME280;63887;53.656;9.810;2023-04-07T08:44:52;102029.25;;;9.69;39.52
4273;BME280;63887;53.656;9.810;2023-04-07T08:47:21;102036.69;;;9.81;39.55
4273;BME280;63887;53.656;9.810;2023-04-07T08:49:51;102019.88;;;9.89;39.33
4273;BME280;63887;53.656;9.810;2023-04-07T08:52:22;102029.25;;;9.97;39.33
4273;BME280;63887;53.656;9.810;2023-04-07T08:54:48;102033.13;;;10.12;39.31
4273;BME280;63887;53.656;9.810;2023-04-07T08:57:19;102024.38;;;10.11;38.99
4273;BME280;63887;53.656;9.810;2023-04-07T08:59:47;102027.91;;;10.10;39.15
4273;BME280;63887;53.656;9.810;2023-04-07T09:02:16;102028.59;;;10.17;38.50
4273;BME280;63887;53.656;9.810;2023-04-07T09:04:43;102029.66;;;10.10;38.80
4273;BME280;63887;53.656;9.810;2023-04-07T09:07:10;102026.63;;;9.96;37.91
4273;BME280;63887;53.656;9.810;2023-04-07T09:09:37;102028.38;;;9.69;39.10
4273;BME280;63887;53.656;9.810;2023-04-07T09:12:03;102034.97;;;9.82;38.63
4273;BME280;63887;53.656;9.810;2023-04-07T09:14:31;102030.16;;;9.95;38.99
4273;BME280;63887;53.656;9.810;2023-04-07T09:16:57;102033.75;;;9.92;37.65
4273;BME280;63887;53.656;9.810;2023-04-07T09:19:25;102023.25;;;9.92;38.10
4273;BME280;63887;53.656;9.810;2023-04-07T09:21:52;102026.34;;;10.05;37.61
4273;BME280;63887;53.656;9.810;2023-04-07T09:24:23;102031.38;;;10.11;39.03
4273;BME280;63887;53.656;9.810;2023-04-07T09:26:49;102036.09;;;10.29;37.00
4273;BME280;63887;53.656;9.810;2023-04-07T09:29:18;102025.22;;;10.40;36.85
4273;BME280;63887;53.656;9.810;2023-04-07T09:31:47;102019.97;;;10.40;37.02
4273;BME280;63887;53.656;9.810;2023-04-07T09:34:25;102018.81;;;10.49;36.97
4273;BME280;63887;53.656;9.810;2023-04-07T09:36:52;102009.66;;;10.60;35.79
4273;BME280;63887;53.656;9.810;2023-04-07T09:39:19;102016.06;;;10.52;36.84
4273;BME280;63887;53.656;9.810;2023-04-07T09:41:45;102028.88;;;10.61;36.51
4273;BME280;63887;53.656;9.810;2023-04-07T09:44:12;102027.53;;;10.49;35.97
4273;BME280;63887;53.656;9.810;2023-04-07T09:46:48;102021.38;;;10.24;37.64
4273;BME280;63887;53.656;9.810;2023-04-07T09:49:15;102010.13;;;10.20;36.03
4273;BME280;63887;53.656;9.810;2023-04-07T09:51:54;102015.72;;;10.09;37.08
4273;BME280;63887;53.656;9.810;2023-04-07T09:54:32;102007.50;;;10.20;36.47
4273;BME280;63887;53.656;9.810;2023-04-07T09:56:59;102010.50;;;10.36;36.95
4273;BME280;63887;53.656;9.810;2023-04-07T09:59:27;102009.81;;;10.56;35.77
4273;BME280;63887;53.656;9.810;2023-04-07T10:01:55;102007.13;;;10.82;36.49
4273;BME280;63887;53.656;9.810;2023-04-07T10:04:22;102014.53;;;10.71;35.57
4273;BME280;63887;53.656;9.810;2023-04-07T10:06:51;102005.91;;;10.67;36.98
4273;BME280;63887;53.656;9.810;2023-04-07T10:09:18;102028.41;;;10.74;35.42
4273;BME280;63887;53.656;9.810;2023-04-07T10:11:45;102018.78;;;10.75;35.90
4273;BME280;63887;53.656;9.810;2023-04-07T10:14:12;102023.22;;;10.73;36.20
4273;BME280;63887;53.656;9.810;2023-04-07T10:16:38;102021.16;;;10.81;35.48
4273;BME280;63887;53.656;9.810;2023-04-07T10:19:08;102037.50;;;10.89;34.89
4273;BME280;63887;53.656;9.810;2023-04-07T10:21:37;102020.47;;;10.76;34.81
4273;BME280;63887;53.656;9.810;2023-04-07T10:24:10;102028.19;;;10.81;34.87
4273;BME280;63887;53.656;9.810;2023-04-07T10:26:45;102020.25;;;10.82;34.08
4273;BME280;63887;53.656;9.810;2023-04-07T10:29:14;102031.50;;;10.61;33.09
4273;BME280;63887;53.656;9.810;2023-04-07T10:31:42;102027.63;;;10.71;33.89
4273;BME280;63887;53.656;9.810;2023-04-07T10:34:11;102028.66;;;10.67;33.79
4273;BME280;63887;53.656;9.810;2023-04-07T10:37:07;102024.13;;;10.72;34.04
4273;BME280;63887;53.656;9.810;2023-04-07T10:39:33;102024.53;;;10.85;34.56
4273;BME280;63887;53.656;9.810;2023-04-07T10:42:02;102030.88;;;10.79;34.82
4273;BME280;63887;53.656;9.810;2023-04-07T10:44:45;102031.91;;;10.75;34.86
4273;BME280;63887;53.656;9.810;2023-04-07T10:47:12;102028.88;;;10.86;35.38
4273;BME280;63887;53.656;9.810;2023-04-07T10:50:13;102035.38;;;10.75;35.03
4273;BME280;63887;53.656;9.810;2023-04-07T10:52:40;102032.63;;;10.79;35.07
4273;BME280;63887;53.656;9.810;2023-04-07T10:55:29;102031.22;;;10.68;36.50
4273;BME280;63887;53.656;9.810;2023-04-07T10:58:21;102038.72;;;10.54;35.02
4273;BME280;63887;53.656;9.810;2023-04-07T11:01:16;102038.66;;;10.31;34.77
4273;BME280;63887;53.656;9.810;2023-04-07T11:04:00;102033.69;;;10.48;35.39
4273;BME280;63887;53.656;9.810;2023-04-07T11:06:30;102028.34;;;10.51;36.66
4273;BME280;63887;53.656;9.810;2023-04-07T11:08:56;102029.13;;;10.53;36.94
4273;BME280;63887;53.656;9.810;2023-04-07T11:11:37;102034.34;;;10.80;37.59
4273;BME280;63887;53.656;9.810;2023-04-07T11:14:04;102037.63;;;10.86;37.90
4273;BME280;63887;53.656;9.810;2023-04-07T11:16:41;102039.47;;;10.83;37.40
4273;BME280;63887;53.656;9.810;2023-04-07T11:19:08;102043.38;;;10.71;37.80
4273;BME280;63887;53.656;9.810;2023-04-07T11:21:36;102042.09;;;10.83;37.77
4273;BME280;63887;53.656;9.810;2023-04-07T11:24:02;102042.75;;;10.89;37.97
4273;BME280;63887;53.656;9.810;2023-04-07T11:26:29;102033.00;;;10.68;36.98
4273;BME280;63887;53.656;9.810;2023-04-07T11:29:03;102043.56;;;10.66;37.14
4273;BME280;63887;53.656;9.810;2023-04-07T11:31:30;102036.22;;;10.51;38.90
4273;BME280;63887;53.656;9.810;2023-04-07T11:33:58;102047.53;;;10.78;38.12
4273;BME280;63887;53.656;9.810;2023-04-07T11:36:26;102026.78;;;10.45;38.12
4273;BME280;63887;53.656;9.810;2023-04-07T11:38:55;102028.16;;;10.57;38.84
4273;BME280;63887;53.656;9.810;2023-04-07T11:41:22;102047.19;;;10.62;37.71
4273;BME280;63887;53.656;9.810;2023-04-07T11:44:03;102032.56;;;10.55;37.16
4273;BME280;63887;53.656;9.810;2023-04-07T11:46:29;102039.16;;;10.67;37.45
4273;BME280;63887;53.656;9.810;2023-04-07T11:49:07;102050.03;;;10.81;36.31
4273;BME280;63887;53.656;9.810;2023-04-07T11:51:34;102045.53;;;10.60;35.66
4273;BME280;63887;53.656;9.810;2023-04-07T11:54:02;102047.50;;;10.53;35.86
4273;BME280;63887;53.656;9.810;2023-04-07T11:56:29;102045.50;;;10.61;37.68
4273;BME280;63887;53.656;9.810;2023-04-07T11:58:55;102045.59;;;10.83;38.07
4273;BME280;63887;53.656;9.810;2023-04-07T12:01:22;102052.50;;;10.86;39.34
4273;BME280;63887;53.656;9.810;2023-04-07T12:03:56;102043.19;;;10.77;39.99
4273;BME280;63887;53.656;9.810;2023-04-07T12:06:27;102051.63;;;10.85;40.32
4273;BME280;63887;53.656;9.810;2023-04-07T12:08:55;102052.66;;;10.81;39.95
4273;BME280;63887;53.656;9.810;2023-04-07T12:11:22;102060.94;;;10.69;40.98
4273;BME280;63887;53.656;9.810;2023-04-07T12:13:50;102050.63;;;10.64;40.98
4273;BME280;63887;53.656;9.810;2023-04-07T12:16:17;102043.44;;;10.44;41.00
4273;BME280;63887;53.656;9.810;2023-04-07T12:18:44;102052.28;;;10.67;41.10
4273;BME280;63887;53.656;9.810;2023-04-07T12:21:10;102053.41;;;10.60;40.40
4273;BME280;63887;53.656;9.810;2023-04-07T12:23:36;102052.44;;;10.62;40.24
4273;BME280;63887;53.656;9.810;2023-04-07T12:26:03;102057.63;;;10.64;40.72
4273;BME280;63887;53.656;9.810;2023-04-07T12:28:31;102054.09;;;10.65;40.57
4273;BME280;63887;53.656;9.810;2023-04-07T12:30:58;102057.25;;;10.50;40.51
4273;BME280;63887;53.656;9.810;2023-04-07T12:33:24;102059.69;;;10.29;41.22
4273;BME280;63887;53.656;9.810;2023-04-07T12:35:51;102057.59;;;10.39;41.08
4273;BME280;63887;53.656;9.810;2023-04-07T12:38:17;102057.53;;;10.42;40.95
4273;BME280;63887;53.656;9.810;2023-04-07T12:40:43;102061.06;;;10.39;40.81
4273;BME280;63887;53.656;9.810;2023-04-07T12:43:10;102060.16;;;10.42;40.40
4273;BME280;63887;53.656;9.810;2023-04-07T12:45:38;102064.03;;;10.30;41.31
4273;BME280;63887;53.656;9.810;2023-04-07T12:48:04;102073.28;;;10.40;40.17
4273;BME280;63887;53.656;9.810;2023-04-07T12:50:31;102059.03;;;10.49;39.99
4273;BME280;63887;53.656;9.810;2023-04-07T12:52:57;102066.38;;;10.38;41.21
4273;BME280;63887;53.656;9.810;2023-04-07T12:55:27;102062.84;;;10.39;41.58
4273;BME280;63887;53.656;9.810;2023-04-07T12:57:54;102064.66;;;10.37;41.84
4273;BME280;63887;53.656;9.810;2023-04-07T13:00:21;102074.25;;;10.38;41.61
4273;BME280;63887;53.656;9.810;2023-04-07T13:02:49;102071.88;;;10.30;41.69
4273;BME280;63887;53.656;9.810;2023-04-07T13:05:16;102067.34;;;10.35;41.91
4273;BME280;63887;53.656;9.810;2023-04-07T13:07:43;102060.66;;;10.27;42.38
4273;BME280;63887;53.656;9.810;2023-04-07T13:10:10;102058.38;;;10.42;42.01
4273;BME280;63887;53.656;9.810;2023-04-07T13:12:37;102061.00;;;10.42;42.09